createdAt,value
2022-12-03T00:00:17.697Z,23.20
2022-12-03T00:02:47.089Z,25.55
2022-12-03T00:05:15.732Z,23.92
2022-12-03T00:07:44.579Z,25.07
2022-12-03T00:10:13.966Z,25.30
2022-12-03T00:12:42.676Z,25.52
2022-12-03T00:15:13.554Z,25.08
2022-12-03T00:17:42.482Z,25.60
2022-12-03T00:20:18.811Z,22.77
2022-12-03T00:22:48.098Z,23.92
2022-12-03T00:25:17.896Z,30.67
2022-12-03T00:27:46.677Z,25.77
2022-12-03T00:30:17.046Z,26.77
2022-12-03T00:32:46.022Z,26.87
2022-12-03T00:35:14.481Z,25.27
2022-12-03T00:37:43.705Z,25.02
2022-12-03T00:40:16.305Z,25.17
2022-12-03T00:42:45.286Z,22.50
2022-12-03T00:45:16.151Z,25.10
2022-12-03T00:47:56.549Z,25.98
2022-12-03T00:50:26.439Z,24.30
2022-12-03T00:52:58.673Z,24.25
2022-12-03T00:55:41.571Z,28.70
2022-12-03T00:58:43.274Z,27.53
2022-12-03T01:01:19.450Z,25.52
2022-12-03T01:06:43.476Z,27.83
2022-12-03T01:09:12.888Z,26.85
2022-12-03T01:11:42.299Z,27.87
2022-12-03T01:14:20.862Z,24.73
2022-12-03T01:16:53.038Z,22.73
2022-12-03T01:19:24.551Z,26.60
2022-12-03T01:21:53.681Z,31.25
2022-12-03T01:24:22.512Z,24.43
2022-12-03T01:26:51.431Z,26.85
2022-12-03T01:29:19.934Z,27.85
2022-12-03T01:32:07.050Z,26.02
2022-12-03T01:34:37.838Z,28.33
2022-12-03T01:37:06.332Z,29.63
2022-12-03T01:39:35.259Z,31.90
2022-12-03T01:42:05.381Z,32.38
2022-12-03T01:44:36.779Z,28.02
2022-12-03T01:47:08.422Z,29.52
2022-12-03T01:49:42.685Z,30.47
2022-12-03T01:52:14.466Z,30.95
2022-12-03T01:54:47.798Z,33.10
2022-12-03T01:57:22.492Z,28.67
2022-12-03T01:59:52.210Z,27.63
2022-12-03T02:02:24.285Z,30.57
2022-12-03T02:04:55.813Z,27.90
2022-12-03T02:07:28.343Z,25.42
2022-12-03T02:09:59.368Z,30.10
2022-12-03T02:12:31.271Z,30.33
2022-12-03T02:15:01.080Z,26.50
2022-12-03T02:17:29.986Z,26.80
2022-12-03T02:20:01.994Z,24.02
2022-12-03T02:22:38.412Z,27.17
2022-12-03T02:25:14.766Z,26.25
2022-12-03T02:27:44.445Z,26.47
2022-12-03T02:30:15.558Z,24.33
2022-12-03T02:32:44.827Z,25.73
2022-12-03T02:35:18.234Z,25.58
2022-12-03T02:37:48.537Z,24.80
2022-12-03T02:40:21.625Z,25.40
2022-12-03T02:42:52.800Z,25.15
2022-12-03T02:45:25.196Z,27.92
2022-12-03T02:47:57.811Z,22.80
2022-12-03T02:50:30.311Z,21.52
2022-12-03T02:53:01.747Z,22.13
2022-12-03T02:55:37.063Z,20.85
2022-12-03T02:58:07.356Z,23.50
2022-12-03T03:00:37.403Z,25.10
2022-12-03T03:03:08.866Z,23.33
2022-12-03T03:05:40.299Z,21.13
2022-12-03T03:08:10.385Z,22.42
2022-12-03T03:10:42.106Z,20.73
2022-12-03T03:13:14.190Z,21.83
2022-12-03T03:15:44.425Z,20.05
2022-12-03T03:18:14.823Z,19.33
2022-12-03T03:20:44.061Z,20.73
2022-12-03T03:23:17.922Z,22.20
2022-12-03T03:25:51.432Z,18.92
2022-12-03T03:28:23.822Z,20.48
2022-12-03T03:30:52.657Z,18.63
2022-12-03T03:33:21.905Z,18.98
2022-12-03T03:35:51.179Z,22.08
2022-12-03T03:38:22.059Z,18.73
2022-12-03T03:40:53.425Z,20.40
2022-12-03T03:43:24.118Z,18.30
2022-12-03T03:45:54.947Z,19.90
2022-12-03T03:48:24.778Z,19.75
2022-12-03T03:50:53.663Z,22.08
2022-12-03T03:53:23.534Z,22.08
2022-12-03T03:55:54.203Z,21.60
2022-12-03T03:58:23.162Z,20.35
2022-12-03T04:00:52.112Z,18.58
2022-12-03T04:03:21.005Z,22.58
2022-12-03T04:05:51.144Z,19.92
2022-12-03T04:08:20.257Z,21.50
2022-12-03T04:11:06.568Z,21.10
2022-12-03T04:13:36.970Z,22.60
2022-12-03T04:16:06.317Z,19.02
2022-12-03T04:18:44.580Z,22.42
2022-12-03T04:21:32.451Z,20.97
2022-12-03T04:24:01.829Z,20.77
2022-12-03T04:26:48.354Z,23.58
2022-12-03T04:29:21.358Z,24.10
2022-12-03T04:32:07.611Z,21.30
2022-12-03T04:34:54.628Z,22.33
2022-12-03T04:37:23.595Z,22.67
2022-12-03T04:39:52.759Z,19.48
2022-12-03T04:42:21.610Z,22.38
2022-12-03T04:44:52.307Z,23.63
2022-12-03T04:47:22.800Z,24.67
2022-12-03T04:49:52.782Z,25.23
2022-12-03T04:52:22.067Z,21.70
2022-12-03T04:54:51.119Z,19.88
2022-12-03T04:57:20.327Z,21.50
2022-12-03T04:59:49.055Z,22.33
2022-12-03T05:02:19.512Z,22.73
2022-12-03T05:04:48.188Z,21.33
2022-12-03T05:07:16.787Z,21.80
2022-12-03T05:09:45.871Z,26.02
2022-12-03T05:12:14.399Z,21.53
2022-12-03T05:14:43.407Z,22.42
2022-12-03T05:17:12.069Z,20.52
2022-12-03T05:19:59.797Z,22.70
2022-12-03T05:22:28.875Z,22.40
2022-12-03T05:24:58.299Z,21.13
2022-12-03T05:27:27.149Z,24.40
2022-12-03T05:29:55.861Z,25.55
2022-12-03T05:32:24.643Z,23.00
2022-12-03T05:34:55.060Z,25.95
2022-12-03T05:37:24.336Z,21.93
2022-12-03T05:39:52.902Z,22.63
2022-12-03T05:42:39.273Z,25.27
2022-12-03T05:45:09.335Z,22.55
2022-12-03T05:47:38.089Z,24.33
2022-12-03T05:50:09.517Z,24.47
2022-12-03T05:52:38.328Z,23.27
2022-12-03T05:55:07.766Z,27.60
2022-12-03T05:57:36.803Z,23.50
2022-12-03T06:00:07.793Z,24.05
2022-12-03T06:02:40.904Z,24.67
2022-12-03T06:05:12.694Z,24.25
2022-12-03T06:07:41.901Z,20.40
2022-12-03T06:10:13.461Z,22.70
2022-12-03T06:12:42.582Z,22.50
2022-12-03T06:15:12.337Z,25.90
2022-12-03T06:17:41.089Z,23.35
2022-12-03T06:20:14.790Z,23.42
2022-12-03T06:22:43.998Z,25.77
2022-12-03T06:25:13.060Z,24.13
2022-12-03T06:27:41.882Z,25.60
2022-12-03T06:30:13.431Z,27.70
2022-12-03T06:32:42.585Z,26.38
2022-12-03T06:35:28.172Z,23.83
2022-12-03T06:37:57.142Z,24.30
2022-12-03T06:40:25.735Z,26.43
2022-12-03T06:42:55.078Z,25.73
2022-12-03T06:45:23.711Z,26.00
2022-12-03T06:47:53.085Z,24.23
2022-12-03T06:50:21.660Z,23.20
2022-12-03T06:52:51.942Z,23.87
2022-12-03T06:55:20.785Z,22.42
2022-12-03T06:57:49.567Z,24.45
2022-12-03T07:00:19.371Z,26.13
2022-12-03T07:02:48.353Z,21.98
2022-12-03T07:05:17.089Z,25.70
2022-12-03T07:07:50.344Z,24.13
2022-12-03T07:10:21.114Z,25.52
2022-12-03T07:12:49.963Z,23.65
2022-12-03T07:15:18.918Z,25.27
2022-12-03T07:17:48.156Z,22.93
2022-12-03T07:20:17.235Z,23.42
2022-12-03T07:22:46.479Z,23.05
2022-12-03T07:25:21.248Z,25.17
2022-12-03T07:27:53.688Z,22.58
2022-12-03T07:30:23.765Z,23.93
2022-12-03T07:32:52.802Z,24.38
2022-12-03T07:35:21.877Z,22.02
2022-12-03T07:37:50.599Z,24.00
2022-12-03T07:40:19.474Z,22.88
2022-12-03T07:42:48.527Z,24.40
2022-12-03T07:45:18.593Z,25.65
2022-12-03T07:47:47.410Z,25.45
2022-12-03T07:50:16.108Z,24.25
2022-12-03T07:52:45.296Z,21.83
2022-12-03T07:55:14.344Z,27.10
2022-12-03T07:57:43.201Z,26.95
2022-12-03T08:00:13.511Z,26.15
2022-12-03T08:02:43.953Z,26.88
2022-12-03T08:05:12.861Z,24.80
2022-12-03T08:07:42.026Z,25.10
2022-12-03T08:10:11.357Z,23.33
2022-12-03T08:12:43.828Z,26.77
2022-12-03T08:15:15.584Z,24.02
2022-12-03T08:17:48.624Z,27.15
2022-12-03T08:20:20.452Z,24.40
2022-12-03T08:22:51.970Z,28.52
2022-12-03T08:25:23.956Z,25.30
2022-12-03T08:27:55.332Z,22.98
2022-12-03T08:30:24.307Z,28.65
2022-12-03T08:32:55.253Z,28.77
2022-12-03T08:35:26.992Z,27.95
2022-12-03T08:38:00.682Z,23.23
2022-12-03T08:40:35.869Z,26.92
2022-12-03T08:43:14.889Z,25.42
2022-12-03T08:45:44.348Z,26.43
2022-12-03T08:48:37.974Z,23.95
2022-12-03T08:51:14.494Z,25.67
2022-12-03T08:53:46.552Z,27.48
2022-12-03T08:56:22.657Z,28.10
2022-12-03T08:58:54.694Z,25.43
2022-12-03T09:01:35.631Z,24.63
2022-12-03T09:04:24.047Z,26.20
2022-12-03T09:06:54.462Z,26.33
2022-12-03T09:09:24.114Z,23.52
2022-12-03T09:11:54.068Z,24.87
2022-12-03T09:14:23.851Z,24.30
2022-12-03T09:16:56.012Z,23.33
2022-12-03T09:19:31.256Z,23.42
2022-12-03T09:22:00.572Z,24.00
2022-12-03T09:24:29.120Z,25.90
2022-12-03T09:26:57.924Z,25.77
2022-12-03T09:29:26.718Z,23.90
2022-12-03T09:31:55.802Z,25.42
2022-12-03T09:34:24.477Z,24.92
2022-12-03T09:36:54.609Z,25.70
2022-12-03T09:39:23.159Z,28.42
2022-12-03T09:41:52.520Z,26.33
2022-12-03T09:44:21.071Z,24.95
2022-12-03T09:46:50.236Z,23.48
2022-12-03T09:49:20.861Z,24.70
2022-12-03T09:51:49.866Z,21.92
2022-12-03T09:54:25.329Z,24.15
2022-12-03T09:56:56.230Z,21.73
2022-12-03T09:59:28.622Z,20.70
2022-12-03T10:01:57.892Z,20.67
2022-12-03T10:04:28.376Z,24.63
2022-12-03T10:06:58.745Z,24.08
2022-12-03T10:09:30.506Z,23.13
2022-12-03T10:12:01.287Z,23.30
2022-12-03T10:14:30.706Z,25.17
2022-12-03T10:16:59.978Z,24.52
2022-12-03T10:19:32.770Z,25.55
2022-12-03T10:22:01.600Z,21.00
2022-12-03T10:24:33.323Z,24.20
2022-12-03T10:27:04.419Z,25.50
2022-12-03T10:29:35.475Z,28.52
2022-12-03T10:32:06.870Z,24.00
2022-12-03T10:34:38.231Z,24.55
2022-12-03T10:37:11.817Z,24.85
2022-12-03T10:40:00.631Z,24.73
2022-12-03T10:42:31.593Z,21.90
2022-12-03T10:45:19.695Z,23.95
2022-12-03T10:48:07.781Z,26.08
2022-12-03T10:50:37.306Z,25.48
2022-12-03T10:53:06.238Z,25.67
2022-12-03T10:55:40.768Z,28.77
2022-12-03T10:58:18.180Z,27.35
2022-12-03T11:00:47.463Z,28.20
2022-12-03T11:03:21.649Z,24.63
2022-12-03T11:05:52.306Z,27.27
2022-12-03T11:08:22.853Z,25.88
2022-12-03T11:11:01.480Z,27.75
2022-12-03T11:13:52.036Z,28.48
2022-12-03T11:17:08.058Z,26.00
2022-12-03T11:19:49.177Z,27.40
2022-12-03T11:22:26.276Z,27.25
2022-12-03T11:25:28.192Z,27.60
2022-12-03T11:28:45.211Z,29.55
2022-12-03T11:31:36.327Z,27.30
2022-12-03T11:34:48.292Z,32.70
2022-12-03T11:37:28.784Z,33.45
2022-12-03T11:40:39.595Z,29.17
2022-12-03T11:43:11.786Z,26.70
2022-12-03T11:45:42.117Z,28.17
2022-12-03T11:48:16.921Z,31.17
2022-12-03T11:50:51.468Z,31.33
2022-12-03T11:53:22.987Z,28.95
2022-12-03T11:56:06.315Z,34.33
2022-12-03T11:58:36.614Z,36.53
2022-12-03T12:01:08.072Z,35.10
2022-12-03T12:03:45.014Z,30.83
2022-12-03T12:06:15.979Z,29.02
2022-12-03T12:08:57.312Z,30.83
2022-12-03T12:11:29.329Z,31.48
2022-12-03T12:13:59.281Z,33.03
2022-12-03T12:16:43.877Z,32.17
2022-12-03T12:19:52.639Z,32.38
2022-12-03T12:22:32.493Z,32.78
2022-12-03T12:25:02.527Z,36.53
2022-12-03T12:27:34.124Z,31.20
2022-12-03T12:30:05.900Z,32.17
2022-12-03T12:32:36.863Z,31.15
2022-12-03T12:35:18.643Z,32.53
2022-12-03T12:37:59.179Z,31.13
2022-12-03T12:40:31.185Z,33.13
2022-12-03T12:43:10.003Z,39.78
2022-12-03T12:45:43.272Z,32.97
2022-12-03T12:48:18.461Z,32.47
2022-12-03T12:50:52.064Z,34.88
2022-12-03T12:53:25.670Z,31.90
2022-12-03T12:55:58.231Z,30.70
2022-12-03T12:58:28.384Z,35.13
2022-12-03T13:00:59.435Z,32.40
2022-12-03T13:03:31.054Z,34.47
2022-12-03T13:06:01.330Z,35.83
2022-12-03T13:08:32.679Z,35.50
2022-12-03T13:11:03.247Z,36.30
2022-12-03T13:13:43.305Z,33.05
2022-12-03T13:16:17.985Z,36.08
2022-12-03T13:18:48.395Z,34.00
2022-12-03T13:21:27.491Z,33.60
2022-12-03T13:23:58.915Z,35.90
2022-12-03T13:26:38.628Z,33.45
2022-12-03T13:29:15.029Z,34.67
2022-12-03T13:31:50.285Z,36.57
2022-12-03T13:34:22.443Z,33.08
2022-12-03T13:36:58.188Z,36.17
2022-12-03T13:39:31.985Z,33.75
2022-12-03T13:42:33.448Z,36.35
2022-12-03T13:45:24.937Z,35.90
2022-12-03T13:47:57.678Z,36.10
2022-12-03T13:50:33.329Z,35.90
2022-12-03T13:53:03.762Z,30.23
2022-12-03T13:55:33.475Z,38.38
2022-12-03T13:58:02.065Z,36.80
2022-12-03T14:00:30.730Z,38.70
2022-12-03T14:02:59.441Z,33.05
2022-12-03T14:05:28.606Z,34.85
2022-12-03T14:07:58.690Z,33.08
2022-12-03T14:10:29.462Z,36.73
2022-12-03T14:12:58.527Z,38.20
2022-12-03T14:15:27.533Z,35.58
2022-12-03T14:17:56.093Z,40.97
2022-12-03T14:20:25.372Z,35.13
2022-12-03T14:22:59.025Z,37.47
2022-12-03T14:25:29.950Z,33.65
2022-12-03T14:27:58.489Z,34.15
2022-12-03T14:30:27.886Z,37.90
2022-12-03T14:32:56.676Z,34.15
2022-12-03T14:35:25.669Z,32.57
2022-12-03T14:37:54.201Z,37.08
2022-12-03T14:40:23.063Z,36.10
2022-12-03T14:42:53.485Z,34.38
2022-12-03T14:45:23.542Z,32.75
2022-12-03T14:47:52.194Z,33.20
2022-12-03T14:50:20.875Z,30.88
2022-12-03T14:52:49.534Z,35.50
2022-12-03T14:55:19.195Z,35.47
2022-12-03T14:57:47.742Z,34.85
2022-12-03T15:00:19.182Z,30.37
2022-12-03T15:02:48.146Z,33.47
2022-12-03T15:05:16.876Z,38.85
2022-12-03T15:07:46.333Z,34.13
2022-12-03T15:10:16.458Z,32.47
2022-12-03T15:12:46.103Z,30.57
2022-12-03T15:15:14.777Z,32.35
2022-12-03T15:17:45.889Z,30.27
2022-12-03T15:20:16.017Z,35.15
2022-12-03T15:22:44.547Z,30.38
2022-12-03T15:25:13.412Z,29.37
2022-12-03T15:27:42.616Z,28.83
2022-12-03T15:30:11.781Z,36.40
2022-12-03T15:32:41.857Z,30.67
2022-12-03T15:35:15.242Z,34.17
2022-12-03T15:37:44.229Z,31.47
2022-12-03T15:40:13.996Z,35.33
2022-12-03T15:42:43.117Z,35.55
2022-12-03T15:45:15.161Z,33.08
2022-12-03T15:47:45.309Z,32.17
2022-12-03T15:50:15.261Z,34.20
2022-12-03T15:52:44.765Z,38.03
2022-12-03T15:55:13.483Z,34.40
2022-12-03T15:57:42.466Z,35.28
2022-12-03T16:00:13.675Z,35.50
2022-12-03T16:02:49.049Z,34.60
2022-12-03T16:05:23.230Z,37.45
2022-12-03T16:07:52.244Z,36.13
2022-12-03T16:10:21.669Z,33.35
2022-12-03T16:12:50.639Z,33.95
2022-12-03T16:15:25.130Z,36.10
2022-12-03T16:17:55.871Z,33.45
2022-12-03T16:20:25.921Z,38.53
2022-12-03T16:22:54.740Z,34.28
2022-12-03T16:25:23.378Z,35.97
2022-12-03T16:27:52.650Z,31.07
2022-12-03T16:30:21.358Z,37.85
2022-12-03T16:32:50.098Z,32.72
2022-12-03T16:35:18.957Z,33.30
2022-12-03T16:37:49.060Z,35.47
2022-12-03T16:40:18.205Z,38.30
2022-12-03T16:42:47.092Z,37.92
2022-12-03T16:45:33.763Z,41.20
2022-12-03T16:48:03.470Z,38.60
2022-12-03T16:50:32.621Z,36.05
2022-12-03T16:53:02.699Z,40.70
2022-12-03T16:55:32.512Z,41.55
2022-12-03T16:58:01.670Z,38.00
2022-12-03T17:00:30.250Z,39.20
2022-12-03T17:02:59.590Z,36.25
2022-12-03T17:05:28.198Z,38.30
2022-12-03T17:07:57.289Z,40.67
2022-12-03T17:10:27.349Z,42.67
2022-12-03T17:13:11.476Z,38.25
2022-12-03T17:15:41.720Z,36.53
2022-12-03T17:18:10.945Z,38.13
2022-12-03T17:20:39.702Z,38.30
2022-12-03T17:23:08.715Z,33.75
2022-12-03T17:25:39.054Z,36.55
2022-12-03T17:28:08.281Z,34.58
2022-12-03T17:30:38.941Z,41.60
2022-12-03T17:33:07.913Z,38.28
2022-12-03T17:35:36.462Z,42.03
2022-12-03T17:38:05.479Z,39.97
2022-12-03T17:40:34.688Z,37.08
2022-12-03T17:43:04.773Z,39.47
2022-12-03T17:45:33.321Z,45.38
2022-12-03T17:48:02.326Z,42.38
2022-12-03T17:50:30.839Z,38.78
2022-12-03T17:53:00.028Z,40.85
2022-12-03T17:55:38.240Z,40.17
2022-12-03T17:58:11.187Z,35.88
2022-12-03T18:00:39.746Z,41.45
2022-12-03T18:03:09.465Z,36.97
2022-12-03T18:05:38.258Z,40.28
2022-12-03T18:08:07.823Z,39.57
2022-12-03T18:10:36.440Z,39.17
2022-12-03T18:13:05.506Z,33.90
2022-12-03T18:15:35.918Z,38.03
2022-12-03T18:18:04.845Z,39.28
2022-12-03T18:20:33.660Z,35.37
2022-12-03T18:23:02.781Z,37.22
2022-12-03T18:25:31.812Z,35.33
2022-12-03T18:28:01.344Z,36.15
2022-12-03T18:30:29.965Z,33.38
2022-12-03T18:33:00.289Z,35.80
2022-12-03T18:35:28.948Z,36.45
2022-12-03T18:37:57.735Z,39.88
2022-12-03T18:40:27.554Z,34.80
2022-12-03T18:42:58.275Z,35.40
2022-12-03T18:45:27.077Z,35.53
2022-12-03T18:47:56.531Z,36.92
2022-12-03T18:50:27.011Z,38.78
2022-12-03T18:52:56.191Z,36.30
2022-12-03T18:55:27.048Z,38.83
2022-12-03T18:57:56.102Z,39.23
2022-12-03T19:00:24.821Z,37.42
2022-12-03T19:03:02.921Z,41.78
2022-12-03T19:05:36.241Z,33.80
2022-12-03T19:08:12.732Z,35.67
2022-12-03T19:10:42.951Z,37.33
2022-12-03T19:13:11.771Z,37.30
2022-12-03T19:15:41.423Z,39.13
2022-12-03T19:18:10.003Z,39.33
2022-12-03T19:20:43.066Z,41.13
2022-12-03T19:23:11.967Z,34.10
2022-12-03T19:25:40.557Z,33.63
2022-12-03T19:28:09.987Z,33.55
2022-12-03T19:30:38.627Z,32.75
2022-12-03T19:33:07.458Z,36.28
2022-12-03T19:35:40.800Z,40.93
2022-12-03T19:38:11.216Z,37.22
2022-12-03T19:40:39.982Z,36.42
2022-12-03T19:43:08.901Z,32.55
2022-12-03T19:45:38.180Z,37.63
2022-12-03T19:48:07.260Z,37.43
2022-12-03T19:50:36.006Z,36.58
2022-12-03T19:53:05.231Z,34.03
2022-12-03T19:55:37.617Z,33.28
2022-12-03T19:58:06.657Z,32.13
2022-12-03T20:00:36.368Z,33.17
2022-12-03T20:03:05.975Z,33.25
2022-12-03T20:05:37.058Z,33.88
2022-12-03T20:08:07.427Z,33.92
2022-12-03T20:10:37.568Z,35.42
2022-12-03T20:13:06.887Z,33.43
2022-12-03T20:15:37.929Z,32.97
2022-12-03T20:18:06.811Z,33.88
2022-12-03T20:20:35.339Z,32.50
2022-12-03T20:23:04.160Z,35.85
2022-12-03T20:25:33.186Z,33.87
2022-12-03T20:28:03.351Z,35.05
2022-12-03T20:30:32.034Z,33.05
2022-12-03T20:33:00.817Z,34.38
2022-12-03T20:35:29.440Z,34.20
2022-12-03T20:37:58.766Z,35.87
2022-12-03T20:40:27.312Z,32.53
2022-12-03T20:42:55.994Z,32.97
2022-12-03T20:45:27.217Z,32.83
2022-12-03T20:47:55.955Z,34.50
2022-12-03T20:50:24.906Z,29.33
2022-12-03T20:53:22.731Z,30.90
2022-12-03T20:55:42.522Z,37.85
2022-12-03T20:58:11.367Z,36.75
2022-12-03T21:00:42.286Z,35.15
2022-12-03T21:03:11.058Z,32.30
2022-12-03T21:05:39.704Z,37.90
2022-12-03T21:08:08.681Z,33.85
2022-12-03T21:10:45.328Z,31.60
2022-12-03T21:13:15.962Z,34.72
2022-12-03T21:15:47.646Z,32.17
2022-12-03T21:18:18.936Z,31.38
2022-12-03T21:20:49.059Z,31.00
2022-12-03T21:23:17.854Z,32.28
2022-12-03T21:25:46.770Z,33.38
2022-12-03T21:28:15.731Z,33.77
2022-12-03T21:30:45.907Z,30.08
2022-12-03T21:33:14.527Z,29.52
2022-12-03T21:35:43.356Z,32.55
2022-12-03T21:38:11.936Z,30.75
2022-12-03T21:40:41.095Z,29.63
2022-12-03T21:43:09.870Z,29.63
2022-12-03T21:45:41.037Z,26.85
2022-12-03T21:48:12.003Z,29.65
2022-12-03T21:50:41.015Z,28.40
2022-12-03T21:53:10.888Z,30.27
2022-12-03T21:55:41.442Z,28.00
2022-12-03T21:58:10.477Z,28.83
2022-12-03T22:00:39.238Z,29.02
2022-12-03T22:03:07.969Z,30.13
2022-12-03T22:05:41.055Z,30.70
2022-12-03T22:08:10.750Z,29.65
2022-12-03T22:10:39.571Z,31.65
2022-12-03T22:13:08.390Z,34.13
2022-12-03T22:15:40.128Z,28.33
2022-12-03T22:18:09.275Z,33.77
2022-12-03T22:20:37.827Z,29.65
2022-12-03T22:23:08.309Z,35.47
2022-12-03T22:25:36.865Z,35.20
2022-12-03T22:28:05.909Z,33.30
2022-12-03T22:30:34.941Z,33.43
2022-12-03T22:33:03.739Z,32.53
2022-12-03T22:35:32.319Z,28.50
2022-12-03T22:38:01.183Z,30.85
2022-12-03T22:40:30.997Z,32.58
2022-12-03T22:42:59.926Z,32.53
2022-12-03T22:45:28.879Z,32.38
2022-12-03T22:47:57.643Z,32.25
2022-12-03T22:50:26.127Z,33.33
2022-12-03T22:52:54.975Z,34.85
2022-12-03T22:55:23.680Z,32.10
2022-12-03T22:57:53.996Z,31.92
2022-12-03T23:00:30.973Z,35.72
2022-12-03T23:03:00.071Z,32.88
2022-12-03T23:05:34.506Z,32.80
2022-12-03T23:08:04.670Z,38.60
2022-12-03T23:10:35.507Z,35.13
2022-12-03T23:13:06.807Z,29.80
2022-12-03T23:15:35.942Z,33.47
2022-12-03T23:18:05.429Z,36.17
2022-12-03T23:20:34.214Z,34.23
2022-12-03T23:23:02.772Z,35.90
2022-12-03T23:25:31.551Z,34.78
2022-12-03T23:28:00.366Z,37.53
2022-12-03T23:30:30.692Z,35.05
2022-12-03T23:32:59.196Z,37.03
2022-12-03T23:35:27.923Z,36.13
2022-12-03T23:37:56.511Z,39.55
2022-12-03T23:40:25.815Z,39.47
2022-12-03T23:42:54.590Z,34.17
2022-12-03T23:45:23.560Z,40.87
2022-12-03T23:47:58.055Z,35.58
2022-12-03T23:50:27.496Z,35.38
2022-12-03T23:52:56.738Z,37.70
2022-12-03T23:55:25.509Z,41.08
2022-12-03T23:57:54.040Z,35.40
